Time;durP1;ratioP1;P1;durP2;ratioP2;P2;SDS_P1;SDS_P2;PMS_P1;PMS_P2;Temp;Humidity;BMP_temperature;BMP_pressure;BME280_temperature;BME280_humidity;BME280_pressure;Samples;Min_cycle;Max_cycle;Signal;HPM_P1;HPM_P2
2023/10/27 00:01:44;;;;;;;6.72;6.03;;;10.00;99.90;;;;;;5031044;28;20265;-83
2023/10/27 00:04:10;;;;;;;7.15;5.57;;;10.00;99.90;;;;;;5014436;28;20202;-92
2023/10/27 00:06:36;;;;;;;10.95;7.72;;;10.00;99.90;;;;;;5014615;28;20195;-84
2023/10/27 00:09:02;;;;;;;9.85;7.07;;;10.00;99.90;;;;;;5031104;28;20191;-84
2023/10/27 00:11:27;;;;;;;10.85;7.65;;;10.00;99.90;;;;;;5014259;28;20185;-83
2023/10/27 00:13:54;;;;;;;11.55;9.35;;;10.00;99.90;;;;;;5015742;28;20194;-85
2023/10/27 00:16:20;;;;;;;12.95;8.63;;;10.00;99.90;;;;;;5015452;28;20229;-93
2023/10/27 00:18:46;;;;;;;16.83;9.68;;;10.00;99.90;;;;;;5023046;28;20582;-84
2023/10/27 00:21:11;;;;;;;18.58;11.10;;;10.00;99.90;;;;;;5015540;28;20211;-84
2023/10/27 00:23:37;;;;;;;13.27;10.68;;;10.10;99.90;;;;;;5015109;28;20284;-83
2023/10/27 00:26:03;;;;;;;17.05;11.52;;;10.10;99.90;;;;;;5015524;28;20179;-83
2023/10/27 00:28:29;;;;;;;15.48;11.38;;;10.10;99.90;;;;;;5015373;28;20525;-86
2023/10/27 00:30:55;;;;;;;23.48;12.27;;;10.10;99.90;;;;;;5014643;28;20188;-93
2023/10/27 00:33:21;;;;;;;19.70;12.50;;;10.10;99.90;;;;;;5015539;28;20186;-94
2023/10/27 00:35:52;;;;;;;17.23;12.75;;;10.10;99.90;;;;;;5014290;28;20553;-93
2023/10/27 00:38:18;;;;;;;30.80;12.88;;;10.10;99.90;;;;;;5014262;28;20526;-90
2023/10/27 00:40:44;;;;;;;17.38;12.38;;;10.10;99.90;;;;;;5015590;28;20187;-93
2023/10/27 00:43:15;;;;;;;20.85;13.60;;;10.10;99.90;;;;;;5014434;28;20219;-94
2023/10/27 00:45:42;;;;;;;29.30;13.32;;;10.10;99.90;;;;;;5006444;28;20210;-84
2023/10/27 00:48:08;;;;;;;17.33;12.88;;;10.10;99.90;;;;;;5015594;28;20261;-84
2023/10/27 00:50:34;;;;;;;22.75;14.20;;;10.10;99.90;;;;;;5015432;28;20618;-83
2023/10/27 00:53:00;;;;;;;20.73;13.60;;;10.10;99.90;;;;;;5014055;28;20238;-89
2023/10/27 00:55:26;;;;;;;17.63;12.88;;;10.10;99.90;;;;;;5016381;28;20187;-93
2023/10/27 00:57:53;;;;;;;19.83;12.82;;;10.10;99.90;;;;;;5020614;28;20230;-94
2023/10/27 01:00:19;;;;;;;20.17;13.60;;;10.10;99.90;;;;;;5015413;28;20277;-95
2023/10/27 01:02:45;;;;;;;23.10;14.20;;;10.10;99.90;;;;;;5014180;28;20637;-95
2023/10/27 01:05:10;;;;;;;18.80;13.07;;;10.10;99.90;;;;;;5014204;28;20238;-91
2023/10/27 01:07:36;;;;;;;20.38;13.35;;;10.10;99.90;;;;;;5030055;28;20215;-94
2023/10/27 01:10:02;;;;;;;17.02;12.65;;;10.10;99.90;;;;;;5014837;28;20179;-95
2023/10/27 01:12:28;;;;;;;21.10;14.63;;;10.20;99.90;;;;;;5022296;28;20187;-95
2023/10/27 01:14:54;;;;;;;20.58;13.20;;;10.10;99.90;;;;;;5014753;28;20210;-92
2023/10/27 01:17:19;;;;;;;27.80;14.48;;;10.10;99.90;;;;;;5014434;28;20187;-95
2023/10/27 01:19:45;;;;;;;22.08;13.60;;;10.10;99.90;;;;;;5022438;28;20187;-93
2023/10/27 01:22:15;;;;;;;18.40;13.35;;;10.20;99.90;;;;;;5013667;28;20250;-93
2023/10/27 01:24:41;;;;;;;21.52;13.77;;;10.20;99.90;;;;;;5007015;28;20178;-94
2023/10/27 01:27:06;;;;;;;22.48;13.90;;;10.20;99.90;;;;;;5417808;23;20237;-86
2023/10/27 01:29:32;;;;;;;21.33;14.20;;;10.20;99.90;;;;;;4989677;28;20188;-87
2023/10/27 01:31:58;;;;;;;19.52;14.45;;;10.20;99.90;;;;;;4991887;28;20235;-87
2023/10/27 01:34:24;;;;;;;19.90;14.55;;;10.20;99.90;;;;;;4984545;28;20195;-87
2023/10/27 01:36:49;;;;;;;23.67;14.90;;;10.10;99.90;;;;;;4989220;28;20183;-88
2023/10/27 01:39:16;;;;;;;20.50;14.02;;;10.10;99.90;;;;;;4995872;28;20283;-87
2023/10/27 01:41:41;;;;;;;22.15;14.15;;;10.10;99.90;;;;;;4987475;28;20239;-87
2023/10/27 01:44:08;;;;;;;24.20;14.32;;;10.10;99.90;;;;;;4998045;28;20210;-88
2023/10/27 01:46:34;;;;;;;20.88;14.32;;;10.20;99.90;;;;;;4988771;28;20215;-87
2023/10/27 01:48:59;;;;;;;22.15;14.57;;;10.20;99.90;;;;;;4981165;28;20195;-87
2023/10/27 01:51:30;;;;;;;21.98;14.65;;;10.10;99.90;;;;;;4993801;28;20184;-87
2023/10/27 01:53:56;;;;;;;25.02;14.55;;;10.20;99.90;;;;;;4989661;28;20392;-87
2023/10/27 01:56:21;;;;;;;22.95;15.35;;;10.20;99.90;;;;;;4975923;28;20519;-87
2023/10/27 01:58:47;;;;;;;24.13;14.73;;;10.20;99.90;;;;;;4993838;28;20259;-89
2023/10/27 02:01:14;;;;;;;26.98;14.43;;;10.20;99.90;;;;;;4996917;28;20651;-87
2023/10/27 02:03:40;;;;;;;20.75;14.23;;;10.20;99.90;;;;;;4992104;28;20215;-86
2023/10/27 02:06:06;;;;;;;20.05;13.77;;;10.20;99.90;;;;;;4976430;28;20271;-88
2023/10/27 02:08:38;;;;;;;19.50;13.43;;;10.20;99.90;;;;;;4984388;28;20212;-86
2023/10/27 02:11:05;;;;;;;20.25;13.77;;;10.20;99.90;;;;;;4984488;28;20206;-87
2023/10/27 02:13:31;;;;;;;19.35;12.70;;;10.20;99.90;;;;;;4995473;28;20188;-86
2023/10/27 02:15:56;;;;;;;19.70;12.80;;;10.20;99.90;;;;;;5005373;28;20196;-87
2023/10/27 02:18:24;;;;;;;18.92;12.98;;;10.20;99.90;;;;;;4995292;28;20227;-87
2023/10/27 02:20:50;;;;;;;17.05;12.40;;;10.20;99.90;;;;;;4995733;28;20194;-86
2023/10/27 02:23:16;;;;;;;17.88;12.38;;;10.20;99.90;;;;;;4980278;28;20224;-87
2023/10/27 02:25:41;;;;;;;20.83;13.25;;;10.20;99.90;;;;;;4976847;28;20216;-87
2023/10/27 02:28:12;;;;;;;17.17;11.85;;;10.10;99.90;;;;;;4999905;28;20239;-88
2023/10/27 02:30:41;;;;;;;20.70;12.65;;;10.20;99.90;;;;;;4996286;28;20649;-88
2023/10/27 02:33:07;;;;;;;19.35;12.32;;;10.20;99.90;;;;;;4987121;28;20216;-87
2023/10/27 02:35:32;;;;;;;20.55;12.52;;;10.10;99.90;;;;;;4999469;28;20665;-87
2023/10/27 02:37:58;;;;;;;19.60;11.55;;;10.20;99.90;;;;;;4998666;28;20518;-87
2023/10/27 02:40:24;;;;;;;20.42;11.57;;;10.20;99.90;;;;;;4990583;28;20203;-88
2023/10/27 02:42:49;;;;;;;16.48;11.48;;;10.20;99.90;;;;;;4991084;28;20215;-87
2023/10/27 02:45:15;;;;;;;20.73;12.85;;;10.20;99.90;;;;;;4990952;28;20613;-88
2023/10/27 02:47:41;;;;;;;20.77;12.90;;;10.20;99.90;;;;;;4990725;28;20318;-88
2023/10/27 02:50:07;;;;;;;17.83;12.35;;;10.20;99.90;;;;;;4998279;28;20523;-86
2023/10/27 02:52:32;;;;;;;21.15;12.90;;;10.20;99.90;;;;;;4998392;28;20269;-87
2023/10/27 02:54:58;;;;;;;24.20;13.32;;;10.20;99.90;;;;;;4998910;28;20187;-87
2023/10/27 02:57:24;;;;;;;20.20;12.82;;;10.20;99.90;;;;;;5005809;28;20191;-87
2023/10/27 02:59:51;;;;;;;23.45;13.30;;;10.20;99.90;;;;;;4998483;28;20222;-87
2023/10/27 03:02:18;;;;;;;19.35;12.68;;;10.10;99.90;;;;;;4998520;28;20215;-87
2023/10/27 03:04:43;;;;;;;20.02;12.70;;;10.20;99.90;;;;;;5001728;28;20183;-87
2023/10/27 03:07:09;;;;;;;24.45;14.35;;;10.20;99.90;;;;;;4994941;28;20203;-87
2023/10/27 03:09:35;;;;;;;25.05;14.88;;;10.20;99.90;;;;;;5005002;28;20593;-88
2023/10/27 03:12:03;;;;;;;23.25;14.18;;;10.20;99.90;;;;;;4989523;28;20618;-88
2023/10/27 03:14:28;;;;;;;27.77;14.80;;;10.20;99.90;;;;;;4988523;28;20188;-86
2023/10/27 03:16:54;;;;;;;23.08;14.57;;;10.20;99.90;;;;;;4989925;28;20175;-88
2023/10/27 03:19:20;;;;;;;22.15;13.98;;;10.20;99.90;;;;;;5000147;28;20198;-88
2023/10/27 03:21:46;;;;;;;26.90;14.65;;;10.20;99.90;;;;;;5006142;28;20630;-88
2023/10/27 03:24:12;;;;;;;29.23;16.02;;;10.20;99.90;;;;;;4999244;28;20190;-89
2023/10/27 03:26:37;;;;;;;27.17;16.10;;;10.20;99.90;;;;;;4987465;28;20189;-88
2023/10/27 03:29:04;;;;;;;25.58;15.75;;;10.10;99.90;;;;;;5003214;28;20183;-87
2023/10/27 03:31:29;;;;;;;26.23;14.93;;;10.20;99.90;;;;;;4999288;28;20214;-87
2023/10/27 03:33:55;;;;;;;26.30;15.32;;;10.20;99.90;;;;;;5003759;28;20219;-87
2023/10/27 03:36:21;;;;;;;27.98;15.25;;;10.20;99.90;;;;;;4988240;28;20240;-87
2023/10/27 03:38:47;;;;;;;25.67;15.27;;;10.10;99.90;;;;;;4989047;28;20194;-86
2023/10/27 03:41:12;;;;;;;25.55;15.65;;;10.10;99.90;;;;;;4996327;28;20274;-87
2023/10/27 03:43:38;;;;;;;25.33;15.23;;;10.20;99.90;;;;;;4997459;28;20188;-86
2023/10/27 03:46:04;;;;;;;26.13;14.68;;;10.20;99.90;;;;;;4996347;28;20242;-87
2023/10/27 03:48:29;;;;;;;22.23;14.52;;;10.20;99.90;;;;;;4980219;28;20295;-87
2023/10/27 03:50:57;;;;;;;29.13;16.08;;;10.20;99.90;;;;;;4996423;28;20689;-87
2023/10/27 03:53:23;;;;;;;26.08;15.30;;;10.20;99.90;;;;;;4996282;28;20568;-86
2023/10/27 03:55:55;;;;;;;27.48;16.33;;;10.20;99.90;;;;;;4995954;28;20195;-87
2023/10/27 03:58:20;;;;;;;25.85;15.65;;;10.20;99.90;;;;;;5001686;28;20512;-87
2023/10/27 04:00:47;;;;;;;27.30;15.40;;;10.20;99.90;;;;;;4996426;28;20195;-87
2023/10/27 04:03:13;;;;;;;28.67;15.70;;;10.20;99.90;;;;;;4980231;28;20219;-87
2023/10/27 04:05:39;;;;;;;25.17;15.13;;;10.20;99.90;;;;;;4976662;28;20192;-87
2023/10/27 04:08:04;;;;;;;24.52;15.25;;;10.30;99.90;;;;;;4983332;28;20198;-87
2023/10/27 04:10:35;;;;;;;28.90;16.13;;;10.30;99.90;;;;;;4985795;28;20188;-87
2023/10/27 04:13:02;;;;;;;30.38;16.77;;;10.20;99.90;;;;;;4990668;28;20183;-86
2023/10/27 04:15:28;;;;;;;31.45;16.95;;;10.20;99.90;;;;;;4977953;28;20188;-86
2023/10/27 04:17:53;;;;;;;26.50;15.93;;;10.20;99.90;;;;;;4981738;28;20210;-87
2023/10/27 04:20:19;;;;;;;25.98;15.73;;;10.20;99.90;;;;;;4995829;28;20184;-86
2023/10/27 04:22:45;;;;;;;28.60;16.10;;;10.20;99.90;;;;;;4995590;28;20219;-87
2023/10/27 04:25:12;;;;;;;25.90;15.35;;;10.20;99.90;;;;;;4987626;28;20274;-86
2023/10/27 04:27:41;;;;;;;25.38;15.10;;;10.20;99.90;;;;;;5000902;28;20240;-87
2023/10/27 04:30:08;;;;;;;24.70;14.45;;;10.20;99.90;;;;;;4995544;28;20274;-87
2023/10/27 04:32:39;;;;;;;23.35;14.65;;;10.20;99.90;;;;;;4987747;28;20189;-87
2023/10/27 04:35:05;;;;;;;25.90;15.70;;;10.20;99.90;;;;;;4981388;28;20195;-88
2023/10/27 04:37:32;;;;;;;25.48;14.50;;;10.10;99.90;;;;;;4979217;28;20506;-87
2023/10/27 04:39:58;;;;;;;22.95;14.15;;;10.20;99.90;;;;;;4995564;28;20196;-87
2023/10/27 04:42:25;;;;;;;24.23;14.65;;;10.10;99.90;;;;;;4987222;28;20212;-87
2023/10/27 04:44:50;;;;;;;21.08;13.93;;;10.10;99.90;;;;;;4995231;28;20279;-87
2023/10/27 04:47:16;;;;;;;24.42;15.50;;;10.10;99.90;;;;;;4987097;28;20235;-87
2023/10/27 04:49:45;;;;;;;20.75;14.43;;;10.10;99.90;;;;;;4978640;28;20646;-86
2023/10/27 04:52:11;;;;;;;24.15;13.57;;;10.10;99.90;;;;;;4995320;28;20568;-86
2023/10/27 04:54:36;;;;;;;25.10;14.50;;;10.10;99.90;;;;;;4998333;28;20191;-86
2023/10/27 04:57:03;;;;;;;26.40;14.50;;;10.10;99.90;;;;;;4992160;28;20639;-87
2023/10/27 04:59:32;;;;;;;26.23;15.43;;;10.10;99.90;;;;;;4993163;28;20184;-88
2023/10/27 05:01:58;;;;;;;25.25;15.07;;;10.10;99.90;;;;;;4981832;28;20215;-87
2023/10/27 05:04:25;;;;;;;25.45;15.68;;;10.10;99.90;;;;;;4986927;28;20191;-85
2023/10/27 05:06:51;;;;;;;25.83;14.10;;;10.10;99.90;;;;;;4980006;28;20190;-86
2023/10/27 05:09:18;;;;;;;28.17;16.25;;;10.10;99.90;;;;;;4995773;28;20183;-86
2023/10/27 05:11:46;;;;;;;28.90;15.68;;;10.10;99.90;;;;;;4994851;28;20191;-86
2023/10/27 05:14:13;;;;;;;25.65;14.88;;;10.10;99.90;;;;;;4994643;28;20184;-87
2023/10/27 05:16:39;;;;;;;29.63;17.33;;;10.10;99.90;;;;;;4994581;28;20184;-87
2023/10/27 05:19:04;;;;;;;29.15;16.27;;;10.10;99.90;;;;;;4994698;28;20614;-86
2023/10/27 05:21:36;;;;;;;34.38;16.73;;;10.10;99.90;;;;;;4984566;28;20209;-87
2023/10/27 05:24:04;;;;;;;36.03;17.67;;;10.10;99.90;;;;;;4983589;28;20530;-87
2023/10/27 05:26:30;;;;;;;33.78;17.08;;;10.10;99.90;;;;;;4991163;28;20188;-87
2023/10/27 05:28:56;;;;;;;33.53;16.95;;;10.10;99.90;;;;;;5000294;28;20192;-87
2023/10/27 05:31:23;;;;;;;30.92;17.13;;;10.10;99.90;;;;;;4994680;28;20626;-87
2023/10/27 05:33:49;;;;;;;33.85;18.17;;;10.10;99.90;;;;;;5002209;28;20238;-87
2023/10/27 05:36:14;;;;;;;35.35;17.60;;;10.10;99.90;;;;;;4986631;28;20626;-88
2023/10/27 05:38:40;;;;;;;38.33;17.85;;;10.10;99.90;;;;;;4991283;28;20539;-88
2023/10/27 05:41:09;;;;;;;32.55;16.58;;;10.10;99.90;;;;;;4998165;28;20207;-88
2023/10/27 05:43:34;;;;;;;29.70;16.45;;;10.10;99.90;;;;;;4994346;28;20191;-89
2023/10/27 05:46:00;;;;;;;34.13;17.25;;;10.10;99.90;;;;;;4995362;28;20179;-90
2023/10/27 05:48:26;;;;;;;29.23;16.33;;;10.10;99.90;;;;;;4994537;28;20274;-87
2023/10/27 05:50:52;;;;;;;39.55;17.77;;;10.10;99.90;;;;;;4994268;28;20187;-87
2023/10/27 05:53:18;;;;;;;28.80;15.85;;;10.10;99.90;;;;;;5002839;28;20191;-87
2023/10/27 05:55:44;;;;;;;36.97;16.50;;;10.20;99.90;;;;;;5002140;28;20180;-88
2023/10/27 05:58:10;;;;;;;32.95;16.85;;;10.10;99.90;;;;;;5000158;28;20247;-88
2023/10/27 06:00:37;;;;;;;33.05;16.80;;;10.10;99.90;;;;;;4995694;28;20222;-89
2023/10/27 06:03:03;;;;;;;31.90;16.98;;;10.10;99.90;;;;;;4998343;28;20225;-88
2023/10/27 06:05:29;;;;;;;28.67;15.68;;;10.10;99.90;;;;;;4998259;28;20621;-87
2023/10/27 06:07:54;;;;;;;36.67;17.08;;;10.20;99.90;;;;;;4998370;28;20201;-88
2023/10/27 06:10:22;;;;;;;32.92;16.67;;;10.10;99.90;;;;;;4998172;28;20246;-88
2023/10/27 06:12:48;;;;;;;29.25;15.82;;;10.20;99.90;;;;;;4998056;28;20254;-88
2023/10/27 06:15:13;;;;;;;32.70;16.48;;;10.20;99.90;;;;;;4998190;28;20191;-87
2023/10/27 06:17:40;;;;;;;32.05;15.57;;;10.10;99.90;;;;;;4981768;28;20184;-87
2023/10/27 06:20:06;;;;;;;28.60;15.30;;;10.10;99.90;;;;;;4998063;28;20184;-87
2023/10/27 06:22:32;;;;;;;28.58;15.45;;;10.10;99.90;;;;;;5003969;28;20215;-87
2023/10/27 06:24:57;;;;;;;30.35;14.07;;;10.10;99.90;;;;;;4978687;28;20207;-87
2023/10/27 06:27:24;;;;;;;30.55;15.75;;;10.10;99.90;;;;;;4993121;28;20241;-88
2023/10/27 06:29:49;;;;;;;31.25;15.30;;;10.10;99.90;;;;;;4993909;28;20195;-87
2023/10/27 06:32:16;;;;;;;35.35;16.20;;;10.10;99.90;;;;;;4978438;28;20192;-87
2023/10/27 06:34:42;;;;;;;28.30;14.15;;;10.10;99.90;;;;;;4989458;28;20234;-87
2023/10/27 06:37:08;;;;;;;34.00;14.57;;;10.20;99.90;;;;;;4997890;28;20188;-87
2023/10/27 06:39:34;;;;;;;26.75;14.23;;;10.20;99.90;;;;;;4997663;28;20242;-88
2023/10/27 06:42:02;;;;;;;32.53;14.13;;;10.10;99.90;;;;;;4997596;28;20262;-88
2023/10/27 06:44:28;;;;;;;29.52;14.02;;;10.10;99.90;;;;;;4996297;28;20191;-88
2023/10/27 06:46:53;;;;;;;30.45;12.93;;;10.10;99.90;;;;;;4990710;28;20189;-87
2023/10/27 06:49:19;;;;;;;25.00;12.57;;;10.20;99.90;;;;;;4986961;28;20216;-88
2023/10/27 06:51:47;;;;;;;24.15;12.32;;;10.20;99.90;;;;;;4985786;28;20270;-90
2023/10/27 06:54:13;;;;;;;27.33;12.98;;;10.20;99.90;;;;;;4993950;28;20203;-87
2023/10/27 06:56:39;;;;;;;22.30;12.70;;;10.10;99.90;;;;;;4986332;28;20188;-88
2023/10/27 06:59:05;;;;;;;26.38;13.00;;;10.20;99.90;;;;;;4977515;28;20215;-89
2023/10/27 07:01:30;;;;;;;24.58;13.20;;;10.10;99.90;;;;;;4995895;28;20207;-87
2023/10/27 07:03:56;;;;;;;26.05;13.27;;;10.10;99.90;;;;;;4992067;28;20195;-88
2023/10/27 07:06:22;;;;;;;26.60;13.27;;;10.10;99.90;;;;;;4986627;28;20184;-89
2023/10/27 07:08:47;;;;;;;21.63;12.27;;;10.00;99.90;;;;;;4997387;28;20334;-88
2023/10/27 07:11:14;;;;;;;25.48;12.52;;;10.20;99.90;;;;;;4981496;28;20188;-89
2023/10/27 07:13:40;;;;;;;23.08;12.52;;;10.10;99.90;;;;;;4984078;28;20184;-88
2023/10/27 07:16:06;;;;;;;24.60;12.70;;;10.10;99.90;;;;;;4996411;28;20266;-87
2023/10/27 07:18:31;;;;;;;25.20;13.05;;;10.10;99.90;;;;;;5002952;28;20210;-89
2023/10/27 07:20:58;;;;;;;36.25;13.10;;;10.20;99.90;;;;;;4977675;28;20209;-87
2023/10/27 07:23:24;;;;;;;24.77;12.95;;;10.20;99.90;;;;;;4993478;28;20251;-89
2023/10/27 07:25:50;;;;;;;24.95;12.07;;;10.20;99.90;;;;;;4989822;28;20554;-88
2023/10/27 07:28:16;;;;;;;25.92;12.73;;;10.20;99.90;;;;;;5004857;28;20322;-88
2023/10/27 07:30:42;;;;;;;19.38;11.57;;;10.20;99.90;;;;;;4988258;28;20184;-87
2023/10/27 07:33:10;;;;;;;18.88;11.43;;;10.20;99.90;;;;;;4996808;28;20203;-88
2023/10/27 07:35:36;;;;;;;24.88;13.18;;;10.20;99.90;;;;;;4994151;28;20188;-87
2023/10/27 07:38:03;;;;;;;21.95;12.50;;;10.20;99.90;;;;;;4985310;28;20496;-88
2023/10/27 07:40:28;;;;;;;23.15;12.70;;;10.20;99.90;;;;;;4977214;28;20200;-88
2023/10/27 07:42:57;;;;;;;24.35;13.05;;;10.20;99.90;;;;;;4982238;28;20216;-88
2023/10/27 07:45:24;;;;;;;23.33;13.10;;;10.30;99.90;;;;;;4997394;28;20507;-88
2023/10/27 07:47:49;;;;;;;23.13;12.93;;;10.20;99.90;;;;;;4989707;28;20214;-89
2023/10/27 07:50:15;;;;;;;20.60;12.52;;;10.20;99.90;;;;;;4996476;28;20274;-88
2023/10/27 07:52:41;;;;;;;26.85;13.45;;;10.20;99.90;;;;;;4985149;28;20206;-87
2023/10/27 07:55:06;;;;;;;26.38;12.82;;;10.20;99.90;;;;;;4992146;28;20199;-88
2023/10/27 07:57:34;;;;;;;22.45;13.15;;;10.20;99.90;;;;;;4996400;28;20191;-88
2023/10/27 08:00:00;;;;;;;21.00;13.32;;;10.20;99.90;;;;;;4995838;28;20246;-89
2023/10/27 08:02:26;;;;;;;24.08;13.18;;;10.20;99.90;;;;;;4978573;28;20217;-88
2023/10/27 08:04:52;;;;;;;19.33;12.38;;;10.30;99.90;;;;;;4981736;28;20190;-88
2023/10/27 08:07:18;;;;;;;22.65;12.82;;;10.30;99.90;;;;;;4996038;28;20219;-87
2023/10/27 08:09:44;;;;;;;22.08;12.70;;;10.30;99.90;;;;;;4988062;28;20526;-88
2023/10/27 08:25:38;;;;;;;27.00;13.65;;;10.20;99.90;;;;;;4996300;28;20276;-87
2023/10/27 08:28:04;;;;;;;24.00;14.20;;;10.20;99.90;;;;;;4981289;28;20260;-88
2023/10/27 08:30:30;;;;;;;22.95;14.20;;;10.10;99.90;;;;;;4976066;28;20231;-87
2023/10/27 08:32:57;;;;;;;29.67;14.52;;;10.10;99.90;;;;;;4976381;28;20192;-90
2023/10/27 08:35:24;;;;;;;23.20;14.20;;;10.20;99.90;;;;;;4976776;28;20467;-89
2023/10/27 08:37:50;;;;;;;23.73;13.93;;;10.20;99.90;;;;;;4985266;28;20546;-90
2023/10/27 08:40:17;;;;;;;25.33;14.77;;;10.20;99.90;;;;;;4976288;28;20638;-91
2023/10/27 08:42:46;;;;;;;27.00;14.32;;;10.10;99.90;;;;;;4995773;28;20234;-90
2023/10/27 08:45:12;;;;;;;24.08;14.23;;;10.10;99.90;;;;;;4980073;28;20243;-90
2023/10/27 08:47:38;;;;;;;30.60;14.40;;;10.10;99.90;;;;;;5003027;28;20215;-90
2023/10/27 08:50:04;;;;;;;24.45;13.95;;;10.20;99.90;;;;;;4995273;28;20234;-91
2023/10/27 08:52:34;;;;;;;24.88;14.50;;;10.10;99.90;;;;;;4995488;28;20195;-90
2023/10/27 08:55:08;;;;;;;25.88;15.25;;;10.10;99.90;;;;;;4989482;28;20184;-89
2023/10/27 08:57:34;;;;;;;28.17;15.18;;;10.10;99.90;;;;;;4996528;28;20202;-91
2023/10/27 08:59:59;;;;;;;29.38;14.68;;;10.10;99.90;;;;;;4987983;28;20219;-91
2023/10/27 09:02:32;;;;;;;23.90;14.40;;;10.10;99.90;;;;;;4985167;28;20243;-90
2023/10/27 09:05:06;;;;;;;22.70;13.93;;;10.20;99.90;;;;;;4997628;28;20184;-90
2023/10/27 09:07:36;;;;;;;23.83;14.35;;;10.10;99.90;;;;;;4979091;28;20192;-88
2023/10/27 09:10:07;;;;;;;23.85;14.07;;;10.10;99.90;;;;;;4961631;28;20223;-90
2023/10/27 09:12:37;;;;;;;27.10;14.90;;;10.10;99.90;;;;;;4980415;28;20193;-90
2023/10/27 09:15:06;;;;;;;24.08;13.68;;;10.20;99.90;;;;;;5005799;28;20183;-90
2023/10/27 09:17:56;;;;;;;26.23;13.95;;;10.20;99.90;;;;;;4998507;28;20527;-89
2023/10/27 09:20:26;;;;;;;23.55;13.38;;;10.30;99.90;;;;;;4997934;28;20184;-91
2023/10/27 09:23:07;;;;;;;30.65;13.65;;;10.30;99.90;;;;;;4989648;28;20280;-92
2023/10/27 09:25:34;;;;;;;25.92;12.98;;;10.30;99.90;;;;;;4987820;28;20180;-91
2023/10/27 09:28:06;;;;;;;21.60;11.90;;;10.40;99.90;;;;;;4990917;28;20258;-94
2023/10/27 09:30:38;;;;;;;17.75;10.05;;;10.40;99.90;;;;;;4988199;28;20190;-91
2023/10/27 09:33:19;;;;;;;22.77;11.48;;;10.40;99.90;;;;;;4997791;28;20183;-92
2023/10/27 09:35:47;;;;;;;22.75;11.65;;;10.50;99.90;;;;;;4994130;28;20187;-92
2023/10/27 09:38:13;;;;;;;22.33;11.65;;;10.60;99.90;;;;;;5001932;28;20227;-92
2023/10/27 09:40:41;;;;;;;17.75;10.30;;;10.60;99.90;;;;;;4998094;28;20191;-93
2023/10/27 09:43:23;;;;;;;18.88;9.68;;;10.70;99.90;;;;;;4998827;28;20224;-92
2023/10/27 09:45:53;;;;;;;17.33;9.98;;;10.70;99.90;;;;;;4989846;28;20274;-92
2023/10/27 09:48:29;;;;;;;18.10;11.40;;;10.80;99.90;;;;;;4988358;28;20184;-91
2023/10/27 09:51:10;;;;;;;18.15;10.10;;;10.90;99.90;;;;;;4995896;28;20199;-92
2023/10/27 09:53:39;;;;;;;17.63;9.65;;;10.90;99.90;;;;;;4995167;28;20183;-92
2023/10/27 09:56:08;;;;;;;19.92;10.40;;;10.90;99.90;;;;;;4980947;28;20195;-91
2023/10/27 09:58:35;;;;;;;17.40;10.35;;;10.90;99.90;;;;;;4994228;28;20274;-92
2023/10/27 10:01:03;;;;;;;17.85;10.52;;;11.00;99.90;;;;;;4995010;28;20187;-92
2023/10/27 10:03:32;;;;;;;18.23;10.43;;;11.00;99.90;;;;;;4995377;28;20231;-91
2023/10/27 10:06:21;;;;;;;16.23;9.25;;;11.00;99.90;;;;;;4995342;28;20195;-92
2023/10/27 10:09:18;;;;;;;19.67;11.48;;;11.00;99.90;;;;;;4999800;28;20275;-89
2023/10/27 10:11:47;;;;;;;20.38;11.05;;;11.00;99.90;;;;;;4987844;28;20207;-92
2023/10/27 10:14:40;;;;;;;18.45;10.52;;;11.00;99.90;;;;;;4997283;28;20191;-91
2023/10/27 10:17:08;;;;;;;20.65;11.23;;;11.00;99.90;;;;;;4995994;28;20188;-92
2023/10/27 10:19:50;;;;;;;20.38;10.63;;;11.00;99.90;;;;;;4995967;28;20611;-92
2023/10/27 10:22:41;;;;;;;20.10;10.88;;;11.00;99.90;;;;;;5012478;28;20306;-91
2023/10/27 10:25:26;;;;;;;16.98;11.20;;;11.10;99.90;;;;;;4997458;28;20196;-92
2023/10/27 10:28:10;;;;;;;18.30;10.95;;;11.10;99.90;;;;;;4988544;28;20267;-94
2023/10/27 10:30:38;;;;;;;17.95;11.10;;;11.10;99.90;;;;;;5009139;28;20642;-92
2023/10/27 10:33:27;;;;;;;17.52;10.35;;;11.20;99.90;;;;;;4983095;28;20187;-92
2023/10/27 10:36:22;;;;;;;25.23;12.35;;;11.20;99.90;;;;;;4995929;28;20211;-90
2023/10/27 10:39:11;;;;;;;21.02;12.57;;;11.20;99.90;;;;;;5011847;28;20188;-92
2023/10/27 10:41:43;;;;;;;22.75;13.05;;;11.10;99.90;;;;;;5009370;28;20220;-91
2023/10/27 10:44:19;;;;;;;21.50;12.95;;;11.10;99.90;;;;;;4987571;28;20219;-91
2023/10/27 10:46:46;;;;;;;21.58;12.93;;;11.10;99.90;;;;;;4996899;28;20184;-91
2023/10/27 10:49:32;;;;;;;21.15;13.27;;;11.00;99.90;;;;;;4992306;28;20630;-90
2023/10/27 10:52:01;;;;;;;23.83;14.07;;;11.00;99.90;;;;;;4993106;28;20274;-90
2023/10/27 10:54:32;;;;;;;22.17;13.80;;;11.00;99.90;;;;;;5001677;28;20195;-92
2023/10/27 10:57:05;;;;;;;24.75;13.73;;;11.00;99.90;;;;;;4999155;28;20422;-92
2023/10/27 10:59:31;;;;;;;24.33;14.43;;;10.90;99.90;;;;;;5000347;28;20196;-90
2023/10/27 11:01:58;;;;;;;22.67;14.60;;;10.80;99.90;;;;;;5000300;28;20226;-93
2023/10/27 11:04:34;;;;;;;24.60;14.05;;;10.80;99.90;;;;;;5000362;28;20279;-91
2023/10/27 11:07:02;;;;;;;21.23;13.48;;;10.80;99.90;;;;;;4988173;28;20215;-91
2023/10/27 11:09:29;;;;;;;25.45;14.27;;;10.90;99.90;;;;;;4982251;28;20199;-91
2023/10/27 11:11:55;;;;;;;24.02;13.77;;;10.90;99.90;;;;;;4998298;28;21032;-92
2023/10/27 11:14:25;;;;;;;22.65;14.18;;;10.80;99.90;;;;;;4993738;28;20203;-91
2023/10/27 11:16:58;;;;;;;19.83;13.05;;;10.90;99.90;;;;;;5000122;28;20180;-91
2023/10/27 11:19:24;;;;;;;23.70;14.55;;;10.90;99.90;;;;;;4991076;28;20195;-92
2023/10/27 11:21:54;;;;;;;25.83;14.52;;;10.90;99.90;;;;;;4991056;28;20204;-90
2023/10/27 11:24:45;;;;;;;21.90;13.98;;;10.90;99.90;;;;;;5003896;28;20199;-90
2023/10/27 11:27:23;;;;;;;22.08;13.45;;;11.00;99.90;;;;;;4998626;28;20243;-92
2023/10/27 11:30:00;;;;;;;20.10;13.18;;;11.00;99.90;;;;;;4990732;28;20207;-91
2023/10/27 11:32:26;;;;;;;23.58;13.95;;;11.10;99.90;;;;;;4998767;28;20187;-91
2023/10/27 11:34:56;;;;;;;22.65;13.98;;;11.10;99.90;;;;;;4998820;28;20191;-91
2023/10/27 11:37:21;;;;;;;23.23;14.18;;;11.10;99.90;;;;;;4998412;28;20223;-90
2023/10/27 11:39:47;;;;;;;23.58;14.38;;;11.10;99.90;;;;;;4998746;28;20215;-92
2023/10/27 11:42:13;;;;;;;26.13;13.93;;;11.10;99.90;;;;;;4990354;28;20226;-91
2023/10/27 11:44:42;;;;;;;24.80;13.60;;;11.10;99.90;;;;;;5004467;28;20275;-92
2023/10/27 11:47:09;;;;;;;23.33;14.57;;;11.10;99.90;;;;;;4978821;28;20507;-91
2023/10/27 11:49:35;;;;;;;22.23;13.98;;;11.10;99.90;;;;;;4982364;28;20186;-92
2023/10/27 11:52:03;;;;;;;22.92;13.70;;;11.00;99.90;;;;;;4985150;28;20184;-90
2023/10/27 11:54:28;;;;;;;21.58;14.05;;;11.00;99.90;;;;;;4980228;28;20188;-90
2023/10/27 11:56:54;;;;;;;23.48;13.88;;;11.10;99.90;;;;;;4988217;28;20239;-92
2023/10/27 11:59:25;;;;;;;20.00;13.85;;;11.00;99.90;;;;;;4994274;28;20187;-90
2023/10/27 12:01:51;;;;;;;24.42;15.68;;;11.00;99.90;;;;;;4979000;28;20212;-92
2023/10/27 12:04:17;;;;;;;22.73;14.80;;;11.00;99.90;;;;;;4978150;28;20199;-93
2023/10/27 12:06:43;;;;;;;26.52;15.10;;;11.10;99.90;;;;;;4976904;28;20188;-92
2023/10/27 12:09:11;;;;;;;19.30;13.63;;;11.00;99.90;;;;;;4976982;28;20502;-92
2023/10/27 12:11:37;;;;;;;22.90;14.98;;;11.00;99.90;;;;;;4976800;28;20631;-91
2023/10/27 12:14:09;;;;;;;24.90;14.13;;;11.00;99.90;;;;;;4991039;28;20195;-92
2023/10/27 12:16:39;;;;;;;21.70;13.80;;;11.10;99.90;;;;;;4996196;28;20281;-92
2023/10/27 12:19:07;;;;;;;22.65;13.95;;;11.10;99.90;;;;;;4996323;28;20180;-90
2023/10/27 12:21:32;;;;;;;23.80;15.27;;;11.10;99.90;;;;;;5002171;28;20199;-94
2023/10/27 12:23:58;;;;;;;24.77;14.30;;;11.20;99.90;;;;;;4976806;28;20284;-91
2023/10/27 12:26:25;;;;;;;23.15;14.50;;;11.10;99.90;;;;;;4993760;28;20211;-90
2023/10/27 12:28:50;;;;;;;21.88;14.20;;;11.10;99.90;;;;;;4995405;28;20754;-92
2023/10/27 12:31:16;;;;;;;22.02;14.60;;;11.20;99.90;;;;;;4995995;28;20278;-93
2023/10/27 12:33:43;;;;;;;26.05;15.35;;;11.20;99.90;;;;;;4996877;28;20199;-94
2023/10/27 12:36:13;;;;;;;27.80;14.57;;;11.20;99.90;;;;;;4987765;28;20188;-92
2023/10/27 12:38:39;;;;;;;22.83;14.43;;;11.20;99.90;;;;;;4984704;28;20204;-93
2023/10/27 12:41:07;;;;;;;22.45;14.38;;;11.10;99.90;;;;;;4990829;28;20199;-92
2023/10/27 12:43:33;;;;;;;24.08;15.00;;;11.20;99.90;;;;;;4999048;28;20265;-92
2023/10/27 12:46:05;;;;;;;21.45;13.65;;;11.10;99.90;;;;;;4995744;28;20525;-93